sensor_id;sensor_type;location;lat;lon;timestamp;temperature;humidity
70154;DHT22;57519;51.494;-2.626;2023-04-16T00:00:23;8.43;89.17
70154;DHT22;57519;51.494;-2.626;2023-04-16T00:02:49;8.43;89.45
70154;DHT22;57519;51.494;-2.626;2023-04-16T00:05:14;8.43;89.48
70154;DHT22;57519;51.494;-2.626;2023-04-16T00:07:39;8.46;89.46
70154;DHT22;57519;51.494;-2.626;2023-04-16T00:10:06;8.49;89.24
70154;DHT22;57519;51.494;-2.626;2023-04-16T00:12:32;8.49;89.01
70154;DHT22;57519;51.494;-2.626;2023-04-16T00:14:57;8.44;88.82
70154;DHT22;57519;51.494;-2.626;2023-04-16T00:17:23;8.46;88.82
70154;DHT22;57519;51.494;-2.626;2023-04-16T00:19:48;8.56;88.50
70154;DHT22;57519;51.494;-2.626;2023-04-16T00:22:14;8.60;88.47
70154;DHT22;57519;51.494;-2.626;2023-04-16T00:24:39;8.59;88.33
70154;DHT22;57519;51.494;-2.626;2023-04-16T00:27:05;8.60;88.36
70154;DHT22;57519;51.494;-2.626;2023-04-16T00:29:31;8.59;88.33
70154;DHT22;57519;51.494;-2.626;2023-04-16T00:31:58;8.54;88.51
70154;DHT22;57519;51.494;-2.626;2023-04-16T00:34:23;8.50;88.50
70154;DHT22;57519;51.494;-2.626;2023-04-16T00:36:48;8.44;88.62
70154;DHT22;57519;51.494;-2.626;2023-04-16T00:39:14;8.37;88.79
70154;DHT22;57519;51.494;-2.626;2023-04-16T00:41:39;8.36;88.91
70154;DHT22;57519;51.494;-2.626;2023-04-16T00:44:05;8.33;89.26
70154;DHT22;57519;51.494;-2.626;2023-04-16T00:46:31;8.32;89.43
70154;DHT22;57519;51.494;-2.626;2023-04-16T00:48:59;8.30;89.19
70154;DHT22;57519;51.494;-2.626;2023-04-16T00:51:25;8.32;89.12
70154;DHT22;57519;51.494;-2.626;2023-04-16T00:53:51;8.37;88.94
70154;DHT22;57519;51.494;-2.626;2023-04-16T00:56:18;8.37;89.14
70154;DHT22;57519;51.494;-2.626;2023-04-16T00:58:43;8.37;89.11
70154;DHT22;57519;51.494;-2.626;2023-04-16T01:01:09;8.40;89.18
70154;DHT22;57519;51.494;-2.626;2023-04-16T01:03:41;8.33;89.29
70154;DHT22;57519;51.494;-2.626;2023-04-16T01:06:07;8.36;89.14
70154;DHT22;57519;51.494;-2.626;2023-04-16T01:08:33;8.36;89.21
70154;DHT22;57519;51.494;-2.626;2023-04-16T01:10:59;8.33;89.21
70154;DHT22;57519;51.494;-2.626;2023-04-16T01:13:24;8.32;89.23
70154;DHT22;57519;51.494;-2.626;2023-04-16T01:15:50;8.30;89.28
70154;DHT22;57519;51.494;-2.626;2023-04-16T01:18:18;8.32;89.27
70154;DHT22;57519;51.494;-2.626;2023-04-16T01:20:45;8.29;89.22
70154;DHT22;57519;51.494;-2.626;2023-04-16T01:23:10;8.29;89.29
70154;DHT22;57519;51.494;-2.626;2023-04-16T01:25:36;8.36;89.25
70154;DHT22;57519;51.494;-2.626;2023-04-16T01:28:02;8.32;89.18
70154;DHT22;57519;51.494;-2.626;2023-04-16T01:30:27;8.30;89.19
70154;DHT22;57519;51.494;-2.626;2023-04-16T01:32:53;8.28;89.34
70154;DHT22;57519;51.494;-2.626;2023-04-16T01:35:18;8.28;89.46
70154;DHT22;57519;51.494;-2.626;2023-04-16T01:37:44;8.23;89.66
70154;DHT22;57519;51.494;-2.626;2023-04-16T01:40:10;8.22;89.57
70154;DHT22;57519;51.494;-2.626;2023-04-16T01:42:36;8.28;89.69
70154;DHT22;57519;51.494;-2.626;2023-04-16T01:45:01;8.30;89.63
70154;DHT22;57519;51.494;-2.626;2023-04-16T01:47:27;8.32;89.54
70154;DHT22;57519;51.494;-2.626;2023-04-16T01:49:52;8.28;89.78
70154;DHT22;57519;51.494;-2.626;2023-04-16T01:52:18;8.28;89.87
70154;DHT22;57519;51.494;-2.626;2023-04-16T01:54:43;8.29;90.02
70154;DHT22;57519;51.494;-2.626;2023-04-16T01:57:09;8.30;90.01
70154;DHT22;57519;51.494;-2.626;2023-04-16T01:59:35;8.32;89.90
70154;DHT22;57519;51.494;-2.626;2023-04-16T02:02:08;8.34;90.05
70154;DHT22;57519;51.494;-2.626;2023-04-16T02:04:40;8.36;90.05
70154;DHT22;57519;51.494;-2.626;2023-04-16T02:07:06;8.36;90.02
70154;DHT22;57519;51.494;-2.626;2023-04-16T02:09:36;8.37;90.08
70154;DHT22;57519;51.494;-2.626;2023-04-16T02:12:02;8.36;89.97
70154;DHT22;57519;51.494;-2.626;2023-04-16T02:14:28;8.30;89.94
70154;DHT22;57519;51.494;-2.626;2023-04-16T02:16:54;8.30;89.93
70154;DHT22;57519;51.494;-2.626;2023-04-16T02:19:19;8.25;89.90
70154;DHT22;57519;51.494;-2.626;2023-04-16T02:21:46;8.26;90.06
70154;DHT22;57519;51.494;-2.626;2023-04-16T02:24:11;8.32;90.06
70154;DHT22;57519;51.494;-2.626;2023-04-16T02:26:37;8.32;89.42
70154;DHT22;57519;51.494;-2.626;2023-04-16T02:29:02;8.33;89.38
70154;DHT22;57519;51.494;-2.626;2023-04-16T02:31:28;8.39;88.98
70154;DHT22;57519;51.494;-2.626;2023-04-16T02:33:54;8.39;89.01
70154;DHT22;57519;51.494;-2.626;2023-04-16T02:36:19;8.33;89.00
70154;DHT22;57519;51.494;-2.626;2023-04-16T02:38:45;8.34;88.78
70154;DHT22;57519;51.494;-2.626;2023-04-16T02:41:11;8.34;88.54
70154;DHT22;57519;51.494;-2.626;2023-04-16T02:43:36;8.34;88.44
70154;DHT22;57519;51.494;-2.626;2023-04-16T02:46:02;8.30;88.81
70154;DHT22;57519;51.494;-2.626;2023-04-16T02:48:27;8.30;88.78
70154;DHT22;57519;51.494;-2.626;2023-04-16T02:50:53;8.30;88.60
70154;DHT22;57519;51.494;-2.626;2023-04-16T02:53:18;8.32;88.80
70154;DHT22;57519;51.494;-2.626;2023-04-16T02:55:54;8.28;89.08
70154;DHT22;57519;51.494;-2.626;2023-04-16T02:58:21;8.23;89.18
70154;DHT22;57519;51.494;-2.626;2023-04-16T03:00:47;8.22;89.16
70154;DHT22;57519;51.494;-2.626;2023-04-16T03:03:13;8.22;89.25
70154;DHT22;57519;51.494;-2.626;2023-04-16T03:05:38;8.13;89.42
70154;DHT22;57519;51.494;-2.626;2023-04-16T03:08:04;8.12;89.41
70154;DHT22;57519;51.494;-2.626;2023-04-16T03:10:30;8.06;89.61
70154;DHT22;57519;51.494;-2.626;2023-04-16T03:12:56;8.03;89.75
70154;DHT22;57519;51.494;-2.626;2023-04-16T03:15:22;8.03;89.78
70154;DHT22;57519;51.494;-2.626;2023-04-16T03:17:47;8.09;89.97
70154;DHT22;57519;51.494;-2.626;2023-04-16T03:20:12;8.09;89.92
70154;DHT22;57519;51.494;-2.626;2023-04-16T03:22:39;8.12;90.07
70154;DHT22;57519;51.494;-2.626;2023-04-16T03:25:05;8.14;90.01
70154;DHT22;57519;51.494;-2.626;2023-04-16T03:27:32;8.16;90.04
70154;DHT22;57519;51.494;-2.626;2023-04-16T03:29:57;8.13;89.85
70154;DHT22;57519;51.494;-2.626;2023-04-16T03:32:23;8.10;89.90
70154;DHT22;57519;51.494;-2.626;2023-04-16T03:34:48;8.09;89.83
70154;DHT22;57519;51.494;-2.626;2023-04-16T03:37:13;8.05;89.89
70154;DHT22;57519;51.494;-2.626;2023-04-16T03:39:39;8.07;90.14
70154;DHT22;57519;51.494;-2.626;2023-04-16T03:42:04;8.02;90.39
70154;DHT22;57519;51.494;-2.626;2023-04-16T03:44:30;8.05;90.59
70154;DHT22;57519;51.494;-2.626;2023-04-16T03:46:55;8.06;90.33
70154;DHT22;57519;51.494;-2.626;2023-04-16T03:49:21;8.13;90.16
70154;DHT22;57519;51.494;-2.626;2023-04-16T03:51:46;8.07;90.12
70154;DHT22;57519;51.494;-2.626;2023-04-16T03:54:11;8.07;90.22
70154;DHT22;57519;51.494;-2.626;2023-04-16T03:56:39;8.02;90.34
70154;DHT22;57519;51.494;-2.626;2023-04-16T03:59:05;8.03;90.42
70154;DHT22;57519;51.494;-2.626;2023-04-16T04:01:31;8.09;90.58
70154;DHT22;57519;51.494;-2.626;2023-04-16T04:03:57;8.16;90.43
70154;DHT22;57519;51.494;-2.626;2023-04-16T04:06:22;8.21;90.44
70154;DHT22;57519;51.494;-2.626;2023-04-16T04:08:48;8.26;90.31
70154;DHT22;57519;51.494;-2.626;2023-04-16T04:11:13;8.14;90.05
70154;DHT22;57519;51.494;-2.626;2023-04-16T04:13:38;8.13;90.25
70154;DHT22;57519;51.494;-2.626;2023-04-16T04:16:04;8.13;90.40
70154;DHT22;57519;51.494;-2.626;2023-04-16T04:18:30;8.17;90.41
70154;DHT22;57519;51.494;-2.626;2023-04-16T04:20:56;8.19;90.57
70154;DHT22;57519;51.494;-2.626;2023-04-16T04:23:22;8.21;90.05
70154;DHT22;57519;51.494;-2.626;2023-04-16T04:25:47;8.23;89.86
70154;DHT22;57519;51.494;-2.626;2023-04-16T04:28:13;8.25;89.86
70154;DHT22;57519;51.494;-2.626;2023-04-16T04:30:40;8.17;89.84
70154;DHT22;57519;51.494;-2.626;2023-04-16T04:33:05;8.23;89.68
70154;DHT22;57519;51.494;-2.626;2023-04-16T04:35:31;8.25;89.79
70154;DHT22;57519;51.494;-2.626;2023-04-16T04:37:56;8.29;90.17
70154;DHT22;57519;51.494;-2.626;2023-04-16T04:40:22;8.25;90.36
70154;DHT22;57519;51.494;-2.626;2023-04-16T04:42:47;8.25;90.19
70154;DHT22;57519;51.494;-2.626;2023-04-16T04:45:13;8.26;90.44
70154;DHT22;57519;51.494;-2.626;2023-04-16T04:47:38;8.28;90.38
70154;DHT22;57519;51.494;-2.626;2023-04-16T04:50:04;8.28;90.81
70154;DHT22;57519;51.494;-2.626;2023-04-16T04:52:30;8.32;90.78
70154;DHT22;57519;51.494;-2.626;2023-04-16T04:54:55;8.26;90.91
70154;DHT22;57519;51.494;-2.626;2023-04-16T04:57:21;8.25;90.77
70154;DHT22;57519;51.494;-2.626;2023-04-16T04:59:46;8.21;90.90
70154;DHT22;57519;51.494;-2.626;2023-04-16T05:02:12;8.22;91.25
70154;DHT22;57519;51.494;-2.626;2023-04-16T05:04:37;8.23;91.41
70154;DHT22;57519;51.494;-2.626;2023-04-16T05:07:03;8.19;91.37
70154;DHT22;57519;51.494;-2.626;2023-04-16T05:09:28;8.21;91.38
70154;DHT22;57519;51.494;-2.626;2023-04-16T05:11:53;8.19;91.53
70154;DHT22;57519;51.494;-2.626;2023-04-16T05:14:19;8.29;91.65
70154;DHT22;57519;51.494;-2.626;2023-04-16T05:16:44;8.29;91.75
70154;DHT22;57519;51.494;-2.626;2023-04-16T05:19:10;8.32;91.75
70154;DHT22;57519;51.494;-2.626;2023-04-16T05:24:01;8.32;92.02
70154;DHT22;57519;51.494;-2.626;2023-04-16T05:26:27;8.33;92.08
70154;DHT22;57519;51.494;-2.626;2023-04-16T05:28:52;8.32;92.11
70154;DHT22;57519;51.494;-2.626;2023-04-16T05:31:18;8.28;92.20
70154;DHT22;57519;51.494;-2.626;2023-04-16T05:33:43;8.26;92.15
70154;DHT22;57519;51.494;-2.626;2023-04-16T05:36:08;8.30;92.11
70154;DHT22;57519;51.494;-2.626;2023-04-16T05:38:34;8.32;92.38
70154;DHT22;57519;51.494;-2.626;2023-04-16T05:40:59;8.29;92.44
70154;DHT22;57519;51.494;-2.626;2023-04-16T05:43:25;8.32;92.50
70154;DHT22;57519;51.494;-2.626;2023-04-16T05:45:50;8.29;92.64
70154;DHT22;57519;51.494;-2.626;2023-04-16T05:48:15;8.30;92.79
70154;DHT22;57519;51.494;-2.626;2023-04-16T05:50:41;8.32;92.82
70154;DHT22;57519;51.494;-2.626;2023-04-16T05:53:07;8.39;92.99
70154;DHT22;57519;51.494;-2.626;2023-04-16T05:55:34;8.46;92.95
70154;DHT22;57519;51.494;-2.626;2023-04-16T05:58:02;8.51;92.88
70154;DHT22;57519;51.494;-2.626;2023-04-16T06:00:30;8.59;92.66
70154;DHT22;57519;51.494;-2.626;2023-04-16T06:02:55;8.64;92.71
70154;DHT22;57519;51.494;-2.626;2023-04-16T06:05:21;8.61;92.46
70154;DHT22;57519;51.494;-2.626;2023-04-16T06:07:46;8.64;92.50
70154;DHT22;57519;51.494;-2.626;2023-04-16T06:10:12;8.70;92.43
70154;DHT22;57519;51.494;-2.626;2023-04-16T06:12:37;8.75;92.26
70154;DHT22;57519;51.494;-2.626;2023-04-16T06:15:03;8.82;92.08
70154;DHT22;57519;51.494;-2.626;2023-04-16T06:17:29;8.87;92.05
70154;DHT22;57519;51.494;-2.626;2023-04-16T06:19:55;8.92;91.97
70154;DHT22;57519;51.494;-2.626;2023-04-16T06:22:20;8.99;91.47
70154;DHT22;57519;51.494;-2.626;2023-04-16T06:24:45;9.04;90.54
70154;DHT22;57519;51.494;-2.626;2023-04-16T06:27:11;9.14;90.33
70154;DHT22;57519;51.494;-2.626;2023-04-16T06:29:36;9.19;89.75
70154;DHT22;57519;51.494;-2.626;2023-04-16T06:32:02;9.18;88.29
70154;DHT22;57519;51.494;-2.626;2023-04-16T06:34:28;9.22;88.41
70154;DHT22;57519;51.494;-2.626;2023-04-16T06:36:53;9.26;88.55
70154;DHT22;57519;51.494;-2.626;2023-04-16T06:39:19;9.23;86.78
70154;DHT22;57519;51.494;-2.626;2023-04-16T06:41:47;9.28;86.70
70154;DHT22;57519;51.494;-2.626;2023-04-16T06:44:12;9.35;86.74
70154;DHT22;57519;51.494;-2.626;2023-04-16T06:46:38;9.40;87.07
70154;DHT22;57519;51.494;-2.626;2023-04-16T06:49:03;9.51;86.65
70154;DHT22;57519;51.494;-2.626;2023-04-16T06:51:29;9.66;86.71
70154;DHT22;57519;51.494;-2.626;2023-04-16T06:53:54;9.76;86.73
70154;DHT22;57519;51.494;-2.626;2023-04-16T06:56:20;9.77;86.56
70154;DHT22;57519;51.494;-2.626;2023-04-16T06:58:45;9.77;85.93
70154;DHT22;57519;51.494;-2.626;2023-04-16T07:01:11;9.87;87.55
70154;DHT22;57519;51.494;-2.626;2023-04-16T07:03:36;9.93;86.77
70154;DHT22;57519;51.494;-2.626;2023-04-16T07:06:01;9.95;86.90
70154;DHT22;57519;51.494;-2.626;2023-04-16T07:08:27;9.98;85.40
70154;DHT22;57519;51.494;-2.626;2023-04-16T07:10:53;10.01;85.25
70154;DHT22;57519;51.494;-2.626;2023-04-16T07:13:19;10.12;85.78
70154;DHT22;57519;51.494;-2.626;2023-04-16T07:15:44;10.12;85.10
70154;DHT22;57519;51.494;-2.626;2023-04-16T07:18:10;10.16;84.62
70154;DHT22;57519;51.494;-2.626;2023-04-16T07:20:35;10.18;84.62
70154;DHT22;57519;51.494;-2.626;2023-04-16T07:23:01;10.18;84.39
70154;DHT22;57519;51.494;-2.626;2023-04-16T07:25:26;10.21;84.54
70154;DHT22;57519;51.494;-2.626;2023-04-16T07:27:52;10.21;84.49
70154;DHT22;57519;51.494;-2.626;2023-04-16T07:30:17;10.26;83.92
70154;DHT22;57519;51.494;-2.626;2023-04-16T07:32:43;10.35;84.31
70154;DHT22;57519;51.494;-2.626;2023-04-16T07:35:08;10.50;84.56
70154;DHT22;57519;51.494;-2.626;2023-04-16T07:37:34;10.64;84.37
70154;DHT22;57519;51.494;-2.626;2023-04-16T07:39:59;10.80;84.01
70154;DHT22;57519;51.494;-2.626;2023-04-16T07:42:28;10.96;84.06
70154;DHT22;57519;51.494;-2.626;2023-04-16T07:44:54;11.10;83.64
70154;DHT22;57519;51.494;-2.626;2023-04-16T07:47:19;11.18;82.80
70154;DHT22;57519;51.494;-2.626;2023-04-16T07:49:47;11.18;82.06
70154;DHT22;57519;51.494;-2.626;2023-04-16T07:52:12;11.08;81.46
70154;DHT22;57519;51.494;-2.626;2023-04-16T07:54:38;11.08;81.24
70154;DHT22;57519;51.494;-2.626;2023-04-16T07:57:03;11.07;81.75
70154;DHT22;57519;51.494;-2.626;2023-04-16T07:59:29;11.01;81.86
70154;DHT22;57519;51.494;-2.626;2023-04-16T08:01:54;11.08;81.20
70154;DHT22;57519;51.494;-2.626;2023-04-16T08:04:20;11.14;80.99
70154;DHT22;57519;51.494;-2.626;2023-04-16T08:06:49;11.12;80.83
70154;DHT22;57519;51.494;-2.626;2023-04-16T08:09:15;11.10;80.10
70154;DHT22;57519;51.494;-2.626;2023-04-16T08:11:41;11.18;79.55
70154;DHT22;57519;51.494;-2.626;2023-04-16T08:14:06;11.14;79.29
70154;DHT22;57519;51.494;-2.626;2023-04-16T08:16:31;11.14;78.77
70154;DHT22;57519;51.494;-2.626;2023-04-16T08:18:57;11.18;79.76
70154;DHT22;57519;51.494;-2.626;2023-04-16T08:21:25;11.22;80.30
70154;DHT22;57519;51.494;-2.626;2023-04-16T08:23:52;11.29;79.28
70154;DHT22;57519;51.494;-2.626;2023-04-16T08:26:18;11.35;79.06
70154;DHT22;57519;51.494;-2.626;2023-04-16T08:28:44;11.48;79.65
70154;DHT22;57519;51.494;-2.626;2023-04-16T08:31:10;11.59;79.84
70154;DHT22;57519;51.494;-2.626;2023-04-16T08:33:36;11.59;79.81
70154;DHT22;57519;51.494;-2.626;2023-04-16T08:36:02;11.66;80.07
70154;DHT22;57519;51.494;-2.626;2023-04-16T08:38:29;11.61;79.23
70154;DHT22;57519;51.494;-2.626;2023-04-16T08:40:55;11.58;78.93
70154;DHT22;57519;51.494;-2.626;2023-04-16T08:43:22;11.63;79.08
70154;DHT22;57519;51.494;-2.626;2023-04-16T08:45:49;11.66;79.10
70154;DHT22;57519;51.494;-2.626;2023-04-16T08:48:18;11.62;78.96
70154;DHT22;57519;51.494;-2.626;2023-04-16T08:50:48;11.67;78.44
70154;DHT22;57519;51.494;-2.626;2023-04-16T08:53:17;11.76;78.95
70154;DHT22;57519;51.494;-2.626;2023-04-16T08:55:49;11.79;78.84
70154;DHT22;57519;51.494;-2.626;2023-04-16T08:58:20;11.82;78.73
70154;DHT22;57519;51.494;-2.626;2023-04-16T09:00:46;11.83;78.43
70154;DHT22;57519;51.494;-2.626;2023-04-16T09:03:12;11.83;78.61
70154;DHT22;57519;51.494;-2.626;2023-04-16T09:05:38;11.80;76.89
70154;DHT22;57519;51.494;-2.626;2023-04-16T09:08:05;11.73;76.06
70154;DHT22;57519;51.494;-2.626;2023-04-16T09:10:31;11.77;76.21
70154;DHT22;57519;51.494;-2.626;2023-04-16T09:12:57;11.80;76.67
70154;DHT22;57519;51.494;-2.626;2023-04-16T09:15:23;11.84;76.68
70154;DHT22;57519;51.494;-2.626;2023-04-16T09:17:52;11.84;76.20
70154;DHT22;57519;51.494;-2.626;2023-04-16T09:20:18;11.91;76.77
70154;DHT22;57519;51.494;-2.626;2023-04-16T09:22:44;11.97;75.89
70154;DHT22;57519;51.494;-2.626;2023-04-16T09:25:11;12.01;75.24
70154;DHT22;57519;51.494;-2.626;2023-04-16T09:27:36;12.07;75.45
70154;DHT22;57519;51.494;-2.626;2023-04-16T09:30:23;12.14;75.58
70154;DHT22;57519;51.494;-2.626;2023-04-16T09:32:51;12.20;75.03
70154;DHT22;57519;51.494;-2.626;2023-04-16T09:35:20;12.31;74.47
70154;DHT22;57519;51.494;-2.626;2023-04-16T09:37:57;12.45;74.85
70154;DHT22;57519;51.494;-2.626;2023-04-16T09:40:24;12.61;74.03
70154;DHT22;57519;51.494;-2.626;2023-04-16T09:42:51;12.69;71.86
70154;DHT22;57519;51.494;-2.626;2023-04-16T09:45:16;12.83;70.47
70154;DHT22;57519;51.494;-2.626;2023-04-16T09:47:43;12.95;71.04
70154;DHT22;57519;51.494;-2.626;2023-04-16T09:50:13;13.14;69.08
70154;DHT22;57519;51.494;-2.626;2023-04-16T09:52:38;13.36;69.27
70154;DHT22;57519;51.494;-2.626;2023-04-16T09:55:04;13.46;66.97
70154;DHT22;57519;51.494;-2.626;2023-04-16T09:57:30;13.68;67.30
70154;DHT22;57519;51.494;-2.626;2023-04-16T10:00:06;13.78;66.51
70154;DHT22;57519;51.494;-2.626;2023-04-16T10:02:34;13.75;66.19
70154;DHT22;57519;51.494;-2.626;2023-04-16T10:05:03;13.50;66.52
70154;DHT22;57519;51.494;-2.626;2023-04-16T10:07:33;13.30;68.50
70154;DHT22;57519;51.494;-2.626;2023-04-16T10:09:58;13.14;70.39
70154;DHT22;57519;51.494;-2.626;2023-04-16T10:12:24;12.95;69.85
70154;DHT22;57519;51.494;-2.626;2023-04-16T10:14:51;12.95;70.42
70154;DHT22;57519;51.494;-2.626;2023-04-16T10:17:17;12.88;70.55
70154;DHT22;57519;51.494;-2.626;2023-04-16T10:19:43;12.85;70.86
70154;DHT22;57519;51.494;-2.626;2023-04-16T10:22:10;12.85;69.03
70154;DHT22;57519;51.494;-2.626;2023-04-16T10:24:35;12.83;68.73
70154;DHT22;57519;51.494;-2.626;2023-04-16T10:27:01;12.78;69.02
70154;DHT22;57519;51.494;-2.626;2023-04-16T10:29:28;12.80;69.35
70154;DHT22;57519;51.494;-2.626;2023-04-16T10:31:54;12.85;68.67
70154;DHT22;57519;51.494;-2.626;2023-04-16T10:34:22;12.80;69.77
70154;DHT22;57519;51.494;-2.626;2023-04-16T10:36:49;12.76;69.66
70154;DHT22;57519;51.494;-2.626;2023-04-16T10:39:18;12.62;68.92
70154;DHT22;57519;51.494;-2.626;2023-04-16T10:41:44;12.58;69.07
70154;DHT22;57519;51.494;-2.626;2023-04-16T10:44:10;12.53;69.53
70154;DHT22;57519;51.494;-2.626;2023-04-16T10:46:54;12.55;69.72
70154;DHT22;57519;51.494;-2.626;2023-04-16T10:49:24;12.63;69.34
70154;DHT22;57519;51.494;-2.626;2023-04-16T10:51:58;12.65;70.49
70154;DHT22;57519;51.494;-2.626;2023-04-16T10:54:26;12.72;70.29
70154;DHT22;57519;51.494;-2.626;2023-04-16T10:56:52;12.83;69.86
70154;DHT22;57519;51.494;-2.626;2023-04-16T10:59:21;12.89;69.61
70154;DHT22;57519;51.494;-2.626;2023-04-16T11:01:53;12.97;69.22
70154;DHT22;57519;51.494;-2.626;2023-04-16T11:15:00;13.16;63.97
70154;DHT22;57519;51.494;-2.626;2023-04-16T11:17:40;13.00;65.51
70154;DHT22;57519;51.494;-2.626;2023-04-16T11:20:08;12.93;66.56
70154;DHT22;57519;51.494;-2.626;2023-04-16T11:22:35;13.00;67.31
70154;DHT22;57519;51.494;-2.626;2023-04-16T11:25:03;12.99;67.95
70154;DHT22;57519;51.494;-2.626;2023-04-16T11:27:30;13.04;67.49
70154;DHT22;57519;51.494;-2.626;2023-04-16T11:30:01;13.07;68.21
70154;DHT22;57519;51.494;-2.626;2023-04-16T11:32:32;12.97;69.38
70154;DHT22;57519;51.494;-2.626;2023-04-16T11:34:58;12.99;69.25
70154;DHT22;57519;51.494;-2.626;2023-04-16T11:37:34;12.93;70.16
70154;DHT22;57519;51.494;-2.626;2023-04-16T11:40:01;13.06;69.59
70154;DHT22;57519;51.494;-2.626;2023-04-16T11:42:28;13.00;70.51
70154;DHT22;57519;51.494;-2.626;2023-04-16T11:44:55;13.00;70.93
70154;DHT22;57519;51.494;-2.626;2023-04-16T11:47:22;13.04;70.61
70154;DHT22;57519;51.494;-2.626;2023-04-16T11:49:48;12.99;70.86
70154;DHT22;57519;51.494;-2.626;2023-04-16T11:52:31;13.07;70.89
70154;DHT22;57519;51.494;-2.626;2023-04-16T11:54:58;13.13;70.95
70154;DHT22;57519;51.494;-2.626;2023-04-16T11:57:28;13.23;70.46
70154;DHT22;57519;51.494;-2.626;2023-04-16T11:59:55;13.20;69.80
70154;DHT22;57519;51.494;-2.626;2023-04-16T12:02:40;13.26;70.17
70154;DHT22;57519;51.494;-2.626;2023-04-16T12:07:50;13.44;69.94
70154;DHT22;57519;51.494;-2.626;2023-04-16T12:10:16;13.72;69.77
70154;DHT22;57519;51.494;-2.626;2023-04-16T12:12:41;13.75;69.92
70154;DHT22;57519;51.494;-2.626;2023-04-16T12:15:07;13.90;68.59
70154;DHT22;57519;51.494;-2.626;2023-04-16T12:17:34;14.19;67.70
70154;DHT22;57519;51.494;-2.626;2023-04-16T12:20:01;14.48;66.69
70154;DHT22;57519;51.494;-2.626;2023-04-16T12:22:31;14.50;66.77
70154;DHT22;57519;51.494;-2.626;2023-04-16T12:25:03;14.67;65.07
70154;DHT22;57519;51.494;-2.626;2023-04-16T12:30:16;14.82;65.64
70154;DHT22;57519;51.494;-2.626;2023-04-16T12:32:43;14.84;66.45
70154;DHT22;57519;51.494;-2.626;2023-04-16T12:35:10;14.96;66.27
70154;DHT22;57519;51.494;-2.626;2023-04-16T12:37:37;14.96;66.05
70154;DHT22;57519;51.494;-2.626;2023-04-16T12:40:03;14.85;65.28
70154;DHT22;57519;51.494;-2.626;2023-04-16T12:42:29;14.68;66.73
70154;DHT22;57519;51.494;-2.626;2023-04-16T12:45:02;14.60;65.58
70154;DHT22;57519;51.494;-2.626;2023-04-16T12:47:29;14.34;65.82
70154;DHT22;57519;51.494;-2.626;2023-04-16T12:49:55;14.37;66.89
70154;DHT22;57519;51.494;-2.626;2023-04-16T12:52:22;14.36;67.82
70154;DHT22;57519;51.494;-2.626;2023-04-16T12:54:47;14.16;69.44
70154;DHT22;57519;51.494;-2.626;2023-04-16T12:57:13;13.90;71.04
70154;DHT22;57519;51.494;-2.626;2023-04-16T12:59:38;13.57;72.45
70154;DHT22;57519;51.494;-2.626;2023-04-16T13:02:03;13.43;73.65
70154;DHT22;57519;51.494;-2.626;2023-04-16T13:04:29;13.41;75.42
70154;DHT22;57519;51.494;-2.626;2023-04-16T13:06:54;13.28;76.10
70154;DHT22;57519;51.494;-2.626;2023-04-16T13:09:20;13.16;77.76
70154;DHT22;57519;51.494;-2.626;2023-04-16T13:11:45;12.90;78.59
70154;DHT22;57519;51.494;-2.626;2023-04-16T13:14:11;12.62;80.45
70154;DHT22;57519;51.494;-2.626;2023-04-16T13:16:36;12.56;81.09
70154;DHT22;57519;51.494;-2.626;2023-04-16T13:19:03;12.66;81.41
70154;DHT22;57519;51.494;-2.626;2023-04-16T13:21:29;12.69;81.97
70154;DHT22;57519;51.494;-2.626;2023-04-16T13:23:54;12.72;82.17
70154;DHT22;57519;51.494;-2.626;2023-04-16T13:26:19;12.71;82.89
70154;DHT22;57519;51.494;-2.626;2023-04-16T13:28:46;12.72;82.00
70154;DHT22;57519;51.494;-2.626;2023-04-16T13:31:11;12.76;82.19
70154;DHT22;57519;51.494;-2.626;2023-04-16T13:33:37;12.78;81.70
70154;DHT22;57519;51.494;-2.626;2023-04-16T13:36:03;12.71;81.71
70154;DHT22;57519;51.494;-2.626;2023-04-16T13:38:28;12.73;81.67
70154;DHT22;57519;51.494;-2.626;2023-04-16T13:40:54;12.79;81.53
70154;DHT22;57519;51.494;-2.626;2023-04-16T13:43:19;12.78;81.19
70154;DHT22;57519;51.494;-2.626;2023-04-16T13:45:46;12.73;80.37
70154;DHT22;57519;51.494;-2.626;2023-04-16T13:48:12;12.78;80.91
70154;DHT22;57519;51.494;-2.626;2023-04-16T13:50:37;12.82;80.53
70154;DHT22;57519;51.494;-2.626;2023-04-16T13:53:02;12.82;79.78
70154;DHT22;57519;51.494;-2.626;2023-04-16T13:55:32;12.93;80.29
70154;DHT22;57519;51.494;-2.626;2023-04-16T13:57:57;13.07;79.81
70154;DHT22;57519;51.494;-2.626;2023-04-16T14:00:24;13.13;79.91
70154;DHT22;57519;51.494;-2.626;2023-04-16T14:02:51;13.10;79.34
70154;DHT22;57519;51.494;-2.626;2023-04-16T14:05:16;13.20;79.14
70154;DHT22;57519;51.494;-2.626;2023-04-16T14:07:43;13.37;79.21
70154;DHT22;57519;51.494;-2.626;2023-04-16T14:10:09;13.46;78.63
70154;DHT22;57519;51.494;-2.626;2023-04-16T14:12:36;13.58;77.15
70154;DHT22;57519;51.494;-2.626;2023-04-16T14:15:04;13.65;77.59
70154;DHT22;57519;51.494;-2.626;2023-04-16T14:17:30;13.59;77.01
70154;DHT22;57519;51.494;-2.626;2023-04-16T14:19:56;13.68;77.78
70154;DHT22;57519;51.494;-2.626;2023-04-16T14:22:21;13.53;76.11
70154;DHT22;57519;51.494;-2.626;2023-04-16T14:24:46;13.57;76.15
70154;DHT22;57519;51.494;-2.626;2023-04-16T14:27:12;13.57;75.70
70154;DHT22;57519;51.494;-2.626;2023-04-16T14:29:37;13.72;76.34
70154;DHT22;57519;51.494;-2.626;2023-04-16T14:32:03;13.55;76.71
70154;DHT22;57519;51.494;-2.626;2023-04-16T14:34:29;13.43;76.68
70154;DHT22;57519;51.494;-2.626;2023-04-16T14:36:54;13.51;76.64
70154;DHT22;57519;51.494;-2.626;2023-04-16T14:39:20;13.55;76.56
70154;DHT22;57519;51.494;-2.626;2023-04-16T14:41:45;13.43;76.78
70154;DHT22;57519;51.494;-2.626;2023-04-16T14:44:11;13.57;76.45
70154;DHT22;57519;51.494;-2.626;2023-04-16T14:46:36;13.51;76.47
70154;DHT22;57519;51.494;-2.626;2023-04-16T14:49:03;13.51;77.08
70154;DHT22;57519;51.494;-2.626;2023-04-16T14:51:29;13.51;76.31
70154;DHT22;57519;51.494;-2.626;2023-04-16T14:53:55;13.58;76.21
70154;DHT22;57519;51.494;-2.626;2023-04-16T14:56:21;13.58;76.25
70154;DHT22;57519;51.494;-2.626;2023-04-16T14:58:47;13.61;76.16
70154;DHT22;57519;51.494;-2.626;2023-04-16T15:01:12;13.71;75.29
70154;DHT22;57519;51.494;-2.626;2023-04-16T15:03:39;13.71;75.65
70154;DHT22;57519;51.494;-2.626;2023-04-16T15:06:05;13.66;75.17
70154;DHT22;57519;51.494;-2.626;2023-04-16T15:08:31;13.66;75.36
70154;DHT22;57519;51.494;-2.626;2023-04-16T15:10:56;13.61;75.87
70154;DHT22;57519;51.494;-2.626;2023-04-16T15:13:22;13.69;75.42
70154;DHT22;57519;51.494;-2.626;2023-04-16T15:15:48;13.69;75.62
70154;DHT22;57519;51.494;-2.626;2023-04-16T15:18:13;13.64;76.37
70154;DHT22;57519;51.494;-2.626;2023-04-16T15:20:40;13.72;76.39
70154;DHT22;57519;51.494;-2.626;2023-04-16T15:23:06;13.75;76.27
70154;DHT22;57519;51.494;-2.626;2023-04-16T15:25:32;13.75;76.29
70154;DHT22;57519;51.494;-2.626;2023-04-16T15:27:57;13.83;76.36
70154;DHT22;57519;51.494;-2.626;2023-04-16T15:30:23;13.89;76.62
70154;DHT22;57519;51.494;-2.626;2023-04-16T15:32:49;13.79;76.25
70154;DHT22;57519;51.494;-2.626;2023-04-16T15:35:14;13.86;75.96